sensor_id;sensor_type;location;lat;lon;timestamp;P1;durP1;ratioP1;P2;durP2;ratioP2
26151;SDS011;13907;53.154;8.202;2022-09-24T00:00:32;6.53;;;4.67;;
26151;SDS011;13907;53.154;8.202;2022-09-24T00:02:59;6.47;;;5.23;;
26151;SDS011;13907;53.154;8.202;2022-09-24T00:05:27;7.10;;;4.30;;
26151;SDS011;13907;53.154;8.202;2022-09-24T00:07:54;6.60;;;5.17;;
26151;SDS011;13907;53.154;8.202;2022-09-24T00:10:22;7.20;;;5.03;;
26151;SDS011;13907;53.154;8.202;2022-09-24T00:12:49;7.43;;;4.63;;
26151;SDS011;13907;53.154;8.202;2022-09-24T00:15:16;7.73;;;5.30;;
26151;SDS011;13907;53.154;8.202;2022-09-24T00:17:44;7.37;;;5.83;;
26151;SDS011;13907;53.154;8.202;2022-09-24T00:20:11;6.43;;;5.07;;
26151;SDS011;13907;53.154;8.202;2022-09-24T00:22:39;9.10;;;5.43;;
26151;SDS011;13907;53.154;8.202;2022-09-24T00:25:06;9.07;;;5.30;;
26151;SDS011;13907;53.154;8.202;2022-09-24T00:27:53;8.40;;;5.00;;
26151;SDS011;13907;53.154;8.202;2022-09-24T00:30:20;7.07;;;4.97;;
26151;SDS011;13907;53.154;8.202;2022-09-24T00:32:47;4.83;;;4.23;;
26151;SDS011;13907;53.154;8.202;2022-09-24T00:35:14;7.83;;;4.90;;
26151;SDS011;13907;53.154;8.202;2022-09-24T00:37:42;7.33;;;5.00;;
26151;SDS011;13907;53.154;8.202;2022-09-24T00:40:09;6.63;;;4.27;;
26151;SDS011;13907;53.154;8.202;2022-09-24T00:42:39;7.40;;;5.70;;
26151;SDS011;13907;53.154;8.202;2022-09-24T00:45:09;8.47;;;4.67;;
26151;SDS011;13907;53.154;8.202;2022-09-24T00:47:36;7.73;;;5.53;;
26151;SDS011;13907;53.154;8.202;2022-09-24T00:50:09;7.90;;;4.93;;
26151;SDS011;13907;53.154;8.202;2022-09-24T00:52:40;7.23;;;5.10;;
26151;SDS011;13907;53.154;8.202;2022-09-24T00:55:08;9.43;;;5.27;;
26151;SDS011;13907;53.154;8.202;2022-09-24T00:57:36;6.90;;;4.40;;
26151;SDS011;13907;53.154;8.202;2022-09-24T01:00:05;8.87;;;5.50;;
26151;SDS011;13907;53.154;8.202;2022-09-24T01:02:34;7.10;;;5.33;;
26151;SDS011;13907;53.154;8.202;2022-09-24T01:05:02;5.40;;;4.20;;
26151;SDS011;13907;53.154;8.202;2022-09-24T01:07:29;9.07;;;5.40;;
26151;SDS011;13907;53.154;8.202;2022-09-24T01:09:56;6.70;;;4.80;;
26151;SDS011;13907;53.154;8.202;2022-09-24T01:12:26;7.93;;;5.27;;
26151;SDS011;13907;53.154;8.202;2022-09-24T01:14:58;5.17;;;4.27;;
26151;SDS011;13907;53.154;8.202;2022-09-24T01:17:40;6.50;;;5.40;;
26151;SDS011;13907;53.154;8.202;2022-09-24T01:20:17;7.50;;;5.27;;
26151;SDS011;13907;53.154;8.202;2022-09-24T01:22:49;7.70;;;5.17;;
26151;SDS011;13907;53.154;8.202;2022-09-24T01:25:23;9.53;;;6.33;;
26151;SDS011;13907;53.154;8.202;2022-09-24T01:28:00;7.37;;;5.57;;
26151;SDS011;13907;53.154;8.202;2022-09-24T01:30:33;8.20;;;5.23;;
26151;SDS011;13907;53.154;8.202;2022-09-24T01:33:02;9.00;;;5.80;;
26151;SDS011;13907;53.154;8.202;2022-09-24T01:35:32;6.63;;;5.43;;
26151;SDS011;13907;53.154;8.202;2022-09-24T01:38:01;7.87;;;5.53;;
26151;SDS011;13907;53.154;8.202;2022-09-24T01:40:29;8.17;;;5.57;;
26151;SDS011;13907;53.154;8.202;2022-09-24T01:42:57;10.20;;;6.13;;
26151;SDS011;13907;53.154;8.202;2022-09-24T01:45:25;8.33;;;5.77;;
26151;SDS011;13907;53.154;8.202;2022-09-24T01:47:55;9.80;;;6.30;;
26151;SDS011;13907;53.154;8.202;2022-09-24T01:50:22;6.57;;;4.80;;
26151;SDS011;13907;53.154;8.202;2022-09-24T01:52:51;6.17;;;5.10;;
26151;SDS011;13907;53.154;8.202;2022-09-24T01:55:20;9.13;;;6.43;;
26151;SDS011;13907;53.154;8.202;2022-09-24T01:57:49;11.17;;;5.73;;
26151;SDS011;13907;53.154;8.202;2022-09-24T02:00:19;8.53;;;5.47;;
26151;SDS011;13907;53.154;8.202;2022-09-24T02:02:47;8.37;;;5.80;;
26151;SDS011;13907;53.154;8.202;2022-09-24T02:05:19;9.33;;;5.40;;
26151;SDS011;13907;53.154;8.202;2022-09-24T02:07:51;9.63;;;6.63;;
26151;SDS011;13907;53.154;8.202;2022-09-24T02:10:22;10.77;;;6.10;;
26151;SDS011;13907;53.154;8.202;2022-09-24T02:12:50;9.73;;;6.70;;
26151;SDS011;13907;53.154;8.202;2022-09-24T02:15:19;7.87;;;5.47;;
26151;SDS011;13907;53.154;8.202;2022-09-24T02:17:49;11.90;;;6.00;;
26151;SDS011;13907;53.154;8.202;2022-09-24T02:20:21;9.33;;;5.77;;
26151;SDS011;13907;53.154;8.202;2022-09-24T02:22:49;7.73;;;5.70;;
26151;SDS011;13907;53.154;8.202;2022-09-24T02:25:19;9.40;;;6.13;;
26151;SDS011;13907;53.154;8.202;2022-09-24T02:27:46;10.27;;;6.00;;
26151;SDS011;13907;53.154;8.202;2022-09-24T02:30:13;7.70;;;6.57;;
26151;SDS011;13907;53.154;8.202;2022-09-24T02:32:41;9.37;;;6.23;;
26151;SDS011;13907;53.154;8.202;2022-09-24T02:35:09;8.57;;;6.10;;
26151;SDS011;13907;53.154;8.202;2022-09-24T02:37:38;7.57;;;5.30;;
26151;SDS011;13907;53.154;8.202;2022-09-24T02:40:07;9.40;;;6.10;;
26151;SDS011;13907;53.154;8.202;2022-09-24T02:42:35;7.93;;;5.73;;
26151;SDS011;13907;53.154;8.202;2022-09-24T02:45:03;12.83;;;7.50;;
26151;SDS011;13907;53.154;8.202;2022-09-24T02:47:31;13.93;;;7.40;;
26151;SDS011;13907;53.154;8.202;2022-09-24T02:49:58;9.50;;;6.97;;
26151;SDS011;13907;53.154;8.202;2022-09-24T02:52:25;9.30;;;6.57;;
26151;SDS011;13907;53.154;8.202;2022-09-24T02:54:53;9.47;;;7.00;;
26151;SDS011;13907;53.154;8.202;2022-09-24T02:57:20;12.47;;;8.13;;
26151;SDS011;13907;53.154;8.202;2022-09-24T02:59:48;11.17;;;7.73;;
26151;SDS011;13907;53.154;8.202;2022-09-24T03:02:15;8.67;;;7.40;;
26151;SDS011;13907;53.154;8.202;2022-09-24T03:04:42;9.93;;;6.80;;
26151;SDS011;13907;53.154;8.202;2022-09-24T03:07:09;12.40;;;6.87;;
26151;SDS011;13907;53.154;8.202;2022-09-24T03:09:38;12.40;;;7.33;;
26151;SDS011;13907;53.154;8.202;2022-09-24T03:12:07;9.60;;;7.30;;
26151;SDS011;13907;53.154;8.202;2022-09-24T03:14:34;13.10;;;7.23;;
26151;SDS011;13907;53.154;8.202;2022-09-24T03:17:01;11.53;;;7.70;;
26151;SDS011;13907;53.154;8.202;2022-09-24T03:19:28;10.73;;;7.20;;
26151;SDS011;13907;53.154;8.202;2022-09-24T03:21:55;13.93;;;8.93;;
26151;SDS011;13907;53.154;8.202;2022-09-24T03:24:22;11.87;;;8.50;;
26151;SDS011;13907;53.154;8.202;2022-09-24T03:26:49;11.20;;;7.57;;
26151;SDS011;13907;53.154;8.202;2022-09-24T03:29:18;10.83;;;7.23;;
26151;SDS011;13907;53.154;8.202;2022-09-24T03:32:06;10.57;;;7.77;;
26151;SDS011;13907;53.154;8.202;2022-09-24T03:34:32;14.40;;;7.97;;
26151;SDS011;13907;53.154;8.202;2022-09-24T03:36:59;15.83;;;8.43;;
26151;SDS011;13907;53.154;8.202;2022-09-24T03:39:26;13.80;;;9.47;;
26151;SDS011;13907;53.154;8.202;2022-09-24T03:41:53;10.67;;;7.13;;
26151;SDS011;13907;53.154;8.202;2022-09-24T03:44:21;12.70;;;8.17;;
26151;SDS011;13907;53.154;8.202;2022-09-24T03:46:49;13.23;;;7.90;;
26151;SDS011;13907;53.154;8.202;2022-09-24T03:49:16;14.10;;;8.83;;
26151;SDS011;13907;53.154;8.202;2022-09-24T03:51:44;15.47;;;8.50;;
26151;SDS011;13907;53.154;8.202;2022-09-24T03:54:11;10.17;;;6.97;;
26151;SDS011;13907;53.154;8.202;2022-09-24T03:56:38;13.03;;;8.93;;
26151;SDS011;13907;53.154;8.202;2022-09-24T03:59:05;12.40;;;8.27;;
26151;SDS011;13907;53.154;8.202;2022-09-24T04:01:33;15.73;;;9.47;;
26151;SDS011;13907;53.154;8.202;2022-09-24T04:04:01;15.07;;;9.30;;
26151;SDS011;13907;53.154;8.202;2022-09-24T04:06:28;15.63;;;8.83;;
26151;SDS011;13907;53.154;8.202;2022-09-24T04:08:56;13.43;;;8.50;;
26151;SDS011;13907;53.154;8.202;2022-09-24T04:11:24;13.97;;;10.00;;
26151;SDS011;13907;53.154;8.202;2022-09-24T04:13:51;15.80;;;9.47;;
26151;SDS011;13907;53.154;8.202;2022-09-24T04:16:18;17.57;;;10.10;;
26151;SDS011;13907;53.154;8.202;2022-09-24T04:18:47;14.47;;;9.87;;
26151;SDS011;13907;53.154;8.202;2022-09-24T04:21:15;15.90;;;9.20;;
26151;SDS011;13907;53.154;8.202;2022-09-24T04:23:42;16.87;;;10.03;;
26151;SDS011;13907;53.154;8.202;2022-09-24T04:26:09;16.20;;;9.40;;
26151;SDS011;13907;53.154;8.202;2022-09-24T04:28:36;12.13;;;8.80;;
26151;SDS011;13907;53.154;8.202;2022-09-24T04:31:03;21.53;;;9.87;;
26151;SDS011;13907;53.154;8.202;2022-09-24T04:33:30;21.93;;;11.57;;
26151;SDS011;13907;53.154;8.202;2022-09-24T04:35:59;18.17;;;9.87;;
26151;SDS011;13907;53.154;8.202;2022-09-24T04:38:26;17.77;;;9.37;;
26151;SDS011;13907;53.154;8.202;2022-09-24T04:40:53;14.17;;;9.40;;
26151;SDS011;13907;53.154;8.202;2022-09-24T04:43:21;12.60;;;8.43;;
26151;SDS011;13907;53.154;8.202;2022-09-24T04:45:48;16.00;;;10.17;;
26151;SDS011;13907;53.154;8.202;2022-09-24T04:48:16;13.87;;;9.77;;
26151;SDS011;13907;53.154;8.202;2022-09-24T04:50:43;16.77;;;9.93;;
26151;SDS011;13907;53.154;8.202;2022-09-24T04:53:11;17.63;;;10.73;;
26151;SDS011;13907;53.154;8.202;2022-09-24T04:55:56;17.07;;;10.37;;
26151;SDS011;13907;53.154;8.202;2022-09-24T05:01:24;14.40;;;9.70;;
26151;SDS011;13907;53.154;8.202;2022-09-24T05:03:51;19.43;;;10.30;;
26151;SDS011;13907;53.154;8.202;2022-09-24T05:06:18;17.93;;;10.60;;
26151;SDS011;13907;53.154;8.202;2022-09-24T05:08:47;19.67;;;10.37;;
26151;SDS011;13907;53.154;8.202;2022-09-24T05:11:14;17.67;;;10.33;;
26151;SDS011;13907;53.154;8.202;2022-09-24T05:13:43;16.00;;;9.67;;
26151;SDS011;13907;53.154;8.202;2022-09-24T05:16:10;14.47;;;9.10;;
26151;SDS011;13907;53.154;8.202;2022-09-24T05:18:37;16.40;;;9.63;;
26151;SDS011;13907;53.154;8.202;2022-09-24T05:24:10;16.20;;;10.17;;
26151;SDS011;13907;53.154;8.202;2022-09-24T05:26:37;14.70;;;9.43;;
26151;SDS011;13907;53.154;8.202;2022-09-24T05:29:22;15.67;;;9.20;;
26151;SDS011;13907;53.154;8.202;2022-09-24T05:31:49;14.77;;;9.33;;
26151;SDS011;13907;53.154;8.202;2022-09-24T05:34:16;14.73;;;9.00;;
26151;SDS011;13907;53.154;8.202;2022-09-24T05:36:43;15.87;;;10.60;;
26151;SDS011;13907;53.154;8.202;2022-09-24T05:39:12;16.07;;;9.43;;
26151;SDS011;13907;53.154;8.202;2022-09-24T05:41:39;13.33;;;8.60;;
26151;SDS011;13907;53.154;8.202;2022-09-24T05:44:07;14.40;;;9.97;;
26151;SDS011;13907;53.154;8.202;2022-09-24T05:46:35;15.90;;;9.30;;
26151;SDS011;13907;53.154;8.202;2022-09-24T05:49:02;12.57;;;7.50;;
26151;SDS011;13907;53.154;8.202;2022-09-24T05:51:29;13.23;;;9.50;;
26151;SDS011;13907;53.154;8.202;2022-09-24T05:53:56;15.50;;;9.83;;
26151;SDS011;13907;53.154;8.202;2022-09-24T05:56:25;16.30;;;9.77;;
26151;SDS011;13907;53.154;8.202;2022-09-24T05:58:52;19.37;;;9.90;;
26151;SDS011;13907;53.154;8.202;2022-09-24T06:01:19;16.00;;;10.23;;
26151;SDS011;13907;53.154;8.202;2022-09-24T06:03:46;16.90;;;9.10;;
26151;SDS011;13907;53.154;8.202;2022-09-24T06:06:13;15.97;;;9.40;;
26151;SDS011;13907;53.154;8.202;2022-09-24T06:08:40;17.07;;;9.20;;
26151;SDS011;13907;53.154;8.202;2022-09-24T06:11:07;13.17;;;7.83;;
26151;SDS011;13907;53.154;8.202;2022-09-24T06:13:36;9.73;;;7.43;;
26151;SDS011;13907;53.154;8.202;2022-09-24T06:16:04;14.40;;;8.70;;
26151;SDS011;13907;53.154;8.202;2022-09-24T06:18:32;11.63;;;8.37;;
26151;SDS011;13907;53.154;8.202;2022-09-24T06:21:00;13.43;;;8.20;;
26151;SDS011;13907;53.154;8.202;2022-09-24T06:23:28;13.03;;;8.73;;
26151;SDS011;13907;53.154;8.202;2022-09-24T06:25:56;14.47;;;8.27;;
26151;SDS011;13907;53.154;8.202;2022-09-24T06:28:23;14.30;;;8.23;;
26151;SDS011;13907;53.154;8.202;2022-09-24T06:30:51;12.57;;;7.93;;
26151;SDS011;13907;53.154;8.202;2022-09-24T06:33:19;11.07;;;7.40;;
26151;SDS011;13907;53.154;8.202;2022-09-24T06:35:47;13.00;;;8.27;;
26151;SDS011;13907;53.154;8.202;2022-09-24T06:38:15;13.77;;;9.07;;
26151;SDS011;13907;53.154;8.202;2022-09-24T06:40:42;17.70;;;8.93;;
26151;SDS011;13907;53.154;8.202;2022-09-24T06:43:11;13.93;;;8.43;;
26151;SDS011;13907;53.154;8.202;2022-09-24T06:45:39;14.47;;;8.93;;
26151;SDS011;13907;53.154;8.202;2022-09-24T06:48:08;12.17;;;8.20;;
26151;SDS011;13907;53.154;8.202;2022-09-24T06:50:38;13.23;;;8.97;;
26151;SDS011;13907;53.154;8.202;2022-09-24T06:53:05;11.70;;;7.10;;
26151;SDS011;13907;53.154;8.202;2022-09-24T06:55:33;12.50;;;8.73;;
26151;SDS011;13907;53.154;8.202;2022-09-24T06:58:01;16.40;;;9.77;;
26151;SDS011;13907;53.154;8.202;2022-09-24T07:00:28;13.33;;;8.20;;
26151;SDS011;13907;53.154;8.202;2022-09-24T07:02:55;15.03;;;9.10;;
26151;SDS011;13907;53.154;8.202;2022-09-24T07:05:24;14.07;;;8.67;;
26151;SDS011;13907;53.154;8.202;2022-09-24T07:07:51;15.27;;;9.17;;
26151;SDS011;13907;53.154;8.202;2022-09-24T07:10:18;12.93;;;8.57;;
26151;SDS011;13907;53.154;8.202;2022-09-24T07:12:48;15.73;;;9.17;;
26151;SDS011;13907;53.154;8.202;2022-09-24T07:15:15;15.83;;;10.40;;
26151;SDS011;13907;53.154;8.202;2022-09-24T07:17:42;12.70;;;8.53;;
26151;SDS011;13907;53.154;8.202;2022-09-24T07:20:10;12.97;;;8.43;;
26151;SDS011;13907;53.154;8.202;2022-09-24T07:22:38;15.60;;;9.43;;
26151;SDS011;13907;53.154;8.202;2022-09-24T07:25:06;14.13;;;9.53;;
26151;SDS011;13907;53.154;8.202;2022-09-24T07:27:34;16.53;;;9.93;;
26151;SDS011;13907;53.154;8.202;2022-09-24T07:30:02;13.90;;;10.37;;
26151;SDS011;13907;53.154;8.202;2022-09-24T07:32:30;16.23;;;9.40;;
26151;SDS011;13907;53.154;8.202;2022-09-24T07:34:57;14.90;;;8.73;;
26151;SDS011;13907;53.154;8.202;2022-09-24T07:37:24;19.53;;;11.03;;
26151;SDS011;13907;53.154;8.202;2022-09-24T07:39:52;19.90;;;9.57;;
26151;SDS011;13907;53.154;8.202;2022-09-24T07:42:20;14.67;;;10.23;;
26151;SDS011;13907;53.154;8.202;2022-09-24T07:44:47;18.17;;;10.30;;
26151;SDS011;13907;53.154;8.202;2022-09-24T07:47:14;12.97;;;9.20;;
26151;SDS011;13907;53.154;8.202;2022-09-24T07:49:41;13.97;;;9.30;;
26151;SDS011;13907;53.154;8.202;2022-09-24T07:52:09;12.47;;;8.77;;
26151;SDS011;13907;53.154;8.202;2022-09-24T07:54:36;17.50;;;10.20;;
26151;SDS011;13907;53.154;8.202;2022-09-24T07:57:09;16.90;;;10.47;;
26151;SDS011;13907;53.154;8.202;2022-09-24T07:59:37;20.70;;;10.50;;
26151;SDS011;13907;53.154;8.202;2022-09-24T08:02:07;14.60;;;9.77;;
26151;SDS011;13907;53.154;8.202;2022-09-24T08:04:35;14.27;;;9.37;;
26151;SDS011;13907;53.154;8.202;2022-09-24T08:07:02;17.30;;;9.27;;
26151;SDS011;13907;53.154;8.202;2022-09-24T08:09:29;14.40;;;8.67;;
26151;SDS011;13907;53.154;8.202;2022-09-24T08:11:57;15.73;;;9.47;;
26151;SDS011;13907;53.154;8.202;2022-09-24T08:14:25;13.60;;;9.63;;
26151;SDS011;13907;53.154;8.202;2022-09-24T08:16:52;12.37;;;8.70;;
26151;SDS011;13907;53.154;8.202;2022-09-24T08:19:19;16.20;;;9.73;;
26151;SDS011;13907;53.154;8.202;2022-09-24T08:21:46;16.33;;;9.07;;
26151;SDS011;13907;53.154;8.202;2022-09-24T08:24:14;16.60;;;9.37;;
26151;SDS011;13907;53.154;8.202;2022-09-24T08:26:41;15.20;;;8.53;;
26151;SDS011;13907;53.154;8.202;2022-09-24T08:29:08;13.00;;;8.20;;
26151;SDS011;13907;53.154;8.202;2022-09-24T08:31:37;16.30;;;9.40;;
26151;SDS011;13907;53.154;8.202;2022-09-24T08:34:06;15.33;;;9.40;;
26151;SDS011;13907;53.154;8.202;2022-09-24T08:36:33;17.37;;;9.97;;
26151;SDS011;13907;53.154;8.202;2022-09-24T08:39:00;17.13;;;9.87;;
26151;SDS011;13907;53.154;8.202;2022-09-24T08:44:26;12.87;;;8.13;;
26151;SDS011;13907;53.154;8.202;2022-09-24T08:47:14;14.47;;;8.30;;
26151;SDS011;13907;53.154;8.202;2022-09-24T08:49:51;15.63;;;9.57;;
26151;SDS011;13907;53.154;8.202;2022-09-24T08:52:25;14.40;;;8.20;;
26151;SDS011;13907;53.154;8.202;2022-09-24T08:54:54;16.57;;;8.90;;
26151;SDS011;13907;53.154;8.202;2022-09-24T08:57:22;15.13;;;8.50;;
26151;SDS011;13907;53.154;8.202;2022-09-24T08:59:50;15.30;;;8.57;;
26151;SDS011;13907;53.154;8.202;2022-09-24T09:02:22;13.93;;;8.33;;
26151;SDS011;13907;53.154;8.202;2022-09-24T09:04:57;13.07;;;8.23;;
26151;SDS011;13907;53.154;8.202;2022-09-24T09:07:28;14.73;;;7.57;;
26151;SDS011;13907;53.154;8.202;2022-09-24T09:09:57;12.87;;;7.67;;
26151;SDS011;13907;53.154;8.202;2022-09-24T09:12:29;14.67;;;7.63;;
26151;SDS011;13907;53.154;8.202;2022-09-24T09:15:01;15.97;;;8.27;;
26151;SDS011;13907;53.154;8.202;2022-09-24T09:17:34;13.27;;;7.80;;
26151;SDS011;13907;53.154;8.202;2022-09-24T09:20:04;14.13;;;8.00;;
26151;SDS011;13907;53.154;8.202;2022-09-24T09:22:34;16.73;;;8.33;;
26151;SDS011;13907;53.154;8.202;2022-09-24T09:25:09;11.93;;;7.83;;
26151;SDS011;13907;53.154;8.202;2022-09-24T09:27:38;13.67;;;7.43;;
26151;SDS011;13907;53.154;8.202;2022-09-24T09:30:10;13.07;;;6.87;;
26151;SDS011;13907;53.154;8.202;2022-09-24T09:32:42;16.23;;;8.00;;
26151;SDS011;13907;53.154;8.202;2022-09-24T09:35:15;14.20;;;7.90;;
26151;SDS011;13907;53.154;8.202;2022-09-24T09:37:46;12.43;;;7.73;;
26151;SDS011;13907;53.154;8.202;2022-09-24T09:40:23;13.50;;;7.80;;
26151;SDS011;13907;53.154;8.202;2022-09-24T09:42:57;14.48;;;8.43;;
26151;SDS011;13907;53.154;8.202;2022-09-24T09:45:27;12.30;;;7.45;;
26151;SDS011;13907;53.154;8.202;2022-09-24T09:47:59;9.93;;;6.50;;
26151;SDS011;13907;53.154;8.202;2022-09-24T09:50:28;17.70;;;8.80;;
26151;SDS011;13907;53.154;8.202;2022-09-24T09:52:56;16.20;;;8.77;;
26151;SDS011;13907;53.154;8.202;2022-09-24T09:55:24;12.20;;;6.43;;
26151;SDS011;13907;53.154;8.202;2022-09-24T09:57:51;12.10;;;7.25;;
26151;SDS011;13907;53.154;8.202;2022-09-24T10:00:26;15.23;;;7.82;;
26151;SDS011;13907;53.154;8.202;2022-09-24T10:02:53;13.50;;;6.68;;
26151;SDS011;13907;53.154;8.202;2022-09-24T10:05:22;14.52;;;8.15;;
26151;SDS011;13907;53.154;8.202;2022-09-24T10:07:52;11.67;;;5.87;;
26151;SDS011;13907;53.154;8.202;2022-09-24T10:10:22;11.73;;;6.27;;
26151;SDS011;13907;53.154;8.202;2022-09-24T10:12:52;12.30;;;7.10;;
26151;SDS011;13907;53.154;8.202;2022-09-24T10:15:20;11.03;;;7.07;;
26151;SDS011;13907;53.154;8.202;2022-09-24T10:17:49;14.50;;;6.90;;
26151;SDS011;13907;53.154;8.202;2022-09-24T10:20:18;15.05;;;7.63;;
26151;SDS011;13907;53.154;8.202;2022-09-24T10:22:49;11.90;;;7.57;;
26151;SDS011;13907;53.154;8.202;2022-09-24T10:25:18;12.50;;;6.67;;
26151;SDS011;13907;53.154;8.202;2022-09-24T10:27:48;14.27;;;7.57;;
26151;SDS011;13907;53.154;8.202;2022-09-24T10:30:16;12.68;;;6.88;;
26151;SDS011;13907;53.154;8.202;2022-09-24T10:32:58;10.63;;;6.93;;
26151;SDS011;13907;53.154;8.202;2022-09-24T10:35:26;13.85;;;7.30;;
26151;SDS011;13907;53.154;8.202;2022-09-24T10:37:56;14.27;;;7.68;;
26151;SDS011;13907;53.154;8.202;2022-09-24T10:40:24;10.27;;;5.97;;
26151;SDS011;13907;53.154;8.202;2022-09-24T10:42:55;11.88;;;6.07;;
26151;SDS011;13907;53.154;8.202;2022-09-24T10:45:22;14.47;;;6.60;;
26151;SDS011;13907;53.154;8.202;2022-09-24T10:47:52;12.20;;;5.35;;
26151;SDS011;13907;53.154;8.202;2022-09-24T10:50:24;10.10;;;5.72;;
26151;SDS011;13907;53.154;8.202;2022-09-24T10:52:52;13.20;;;5.97;;
26151;SDS011;13907;53.154;8.202;2022-09-24T10:58:08;9.27;;;5.63;;
26151;SDS011;13907;53.154;8.202;2022-09-24T11:00:44;10.50;;;6.55;;
26151;SDS011;13907;53.154;8.202;2022-09-24T11:03:30;10.43;;;4.95;;
26151;SDS011;13907;53.154;8.202;2022-09-24T11:06:00;6.90;;;4.88;;
26151;SDS011;13907;53.154;8.202;2022-09-24T11:08:31;8.18;;;4.93;;
26151;SDS011;13907;53.154;8.202;2022-09-24T11:11:04;13.77;;;6.68;;
26151;SDS011;13907;53.154;8.202;2022-09-24T11:13:38;12.35;;;6.40;;
26151;SDS011;13907;53.154;8.202;2022-09-24T11:19:04;12.00;;;6.68;;
26151;SDS011;13907;53.154;8.202;2022-09-24T11:21:39;9.30;;;5.63;;
26151;SDS011;13907;53.154;8.202;2022-09-24T11:26:59;9.80;;;5.85;;
26151;SDS011;13907;53.154;8.202;2022-09-24T11:29:33;8.00;;;4.70;;
26151;SDS011;13907;53.154;8.202;2022-09-24T11:32:05;7.45;;;5.07;;
26151;SDS011;13907;53.154;8.202;2022-09-24T11:34:51;12.25;;;6.40;;
26151;SDS011;13907;53.154;8.202;2022-09-24T11:37:27;8.27;;;6.07;;
26151;SDS011;13907;53.154;8.202;2022-09-24T11:40:20;9.47;;;6.27;;
26151;SDS011;13907;53.154;8.202;2022-09-24T11:42:52;11.02;;;6.70;;
26151;SDS011;13907;53.154;8.202;2022-09-24T11:45:32;11.23;;;6.10;;
26151;SDS011;13907;53.154;8.202;2022-09-24T11:48:13;11.77;;;6.10;;
26151;SDS011;13907;53.154;8.202;2022-09-24T11:50:49;11.32;;;6.78;;
26151;SDS011;13907;53.154;8.202;2022-09-24T11:53:22;10.18;;;5.97;;
26151;SDS011;13907;53.154;8.202;2022-09-24T11:55:51;10.65;;;5.55;;
26151;SDS011;13907;53.154;8.202;2022-09-24T11:58:22;12.07;;;6.38;;
26151;SDS011;13907;53.154;8.202;2022-09-24T12:00:54;10.18;;;5.70;;
26151;SDS011;13907;53.154;8.202;2022-09-24T12:03:23;9.02;;;5.55;;
26151;SDS011;13907;53.154;8.202;2022-09-24T12:05:52;12.70;;;6.43;;
26151;SDS011;13907;53.154;8.202;2022-09-24T12:08:21;10.02;;;6.45;;
26151;SDS011;13907;53.154;8.202;2022-09-24T12:10:52;11.15;;;7.18;;
26151;SDS011;13907;53.154;8.202;2022-09-24T12:13:23;13.27;;;7.03;;
26151;SDS011;13907;53.154;8.202;2022-09-24T12:15:53;10.38;;;6.45;;
26151;SDS011;13907;53.154;8.202;2022-09-24T12:18:23;9.85;;;5.90;;
26151;SDS011;13907;53.154;8.202;2022-09-24T12:20:52;9.70;;;6.10;;
26151;SDS011;13907;53.154;8.202;2022-09-24T12:23:21;9.90;;;6.38;;
26151;SDS011;13907;53.154;8.202;2022-09-24T12:25:52;14.32;;;6.45;;
26151;SDS011;13907;53.154;8.202;2022-09-24T12:28:20;14.70;;;6.40;;
26151;SDS011;13907;53.154;8.202;2022-09-24T12:31:08;10.45;;;5.78;;
26151;SDS011;13907;53.154;8.202;2022-09-24T12:33:56;10.60;;;5.68;;
26151;SDS011;13907;53.154;8.202;2022-09-24T12:36:27;10.88;;;5.72;;
26151;SDS011;13907;53.154;8.202;2022-09-24T12:39:00;11.63;;;5.30;;
26151;SDS011;13907;53.154;8.202;2022-09-24T12:41:28;11.48;;;5.68;;
26151;SDS011;13907;53.154;8.202;2022-09-24T12:43:57;8.18;;;4.80;;
26151;SDS011;13907;53.154;8.202;2022-09-24T12:46:27;9.05;;;5.28;;
26151;SDS011;13907;53.154;8.202;2022-09-24T12:48:56;10.18;;;5.00;;
26151;SDS011;13907;53.154;8.202;2022-09-24T12:51:23;8.95;;;4.78;;
26151;SDS011;13907;53.154;8.202;2022-09-24T12:54:04;7.88;;;5.13;;
26151;SDS011;13907;53.154;8.202;2022-09-24T12:56:31;10.35;;;6.15;;
26151;SDS011;13907;53.154;8.202;2022-09-24T12:58:59;6.28;;;4.93;;
26151;SDS011;13907;53.154;8.202;2022-09-24T13:01:29;9.43;;;6.50;;
26151;SDS011;13907;53.154;8.202;2022-09-24T13:06:47;8.05;;;4.40;;
26151;SDS011;13907;53.154;8.202;2022-09-24T13:09:22;11.68;;;6.18;;
26151;SDS011;13907;53.154;8.202;2022-09-24T13:11:59;6.65;;;4.90;;
26151;SDS011;13907;53.154;8.202;2022-09-24T13:14:26;8.80;;;5.72;;
26151;SDS011;13907;53.154;8.202;2022-09-24T13:16:56;6.80;;;4.13;;
26151;SDS011;13907;53.154;8.202;2022-09-24T13:19:27;8.20;;;4.30;;
26151;SDS011;13907;53.154;8.202;2022-09-24T13:21:58;7.10;;;4.72;;
26151;SDS011;13907;53.154;8.202;2022-09-24T13:24:27;8.70;;;4.60;;
26151;SDS011;13907;53.154;8.202;2022-09-24T13:27:06;6.93;;;4.28;;
26151;SDS011;13907;53.154;8.202;2022-09-24T13:29:36;7.88;;;4.85;;
26151;SDS011;13907;53.154;8.202;2022-09-24T13:32:03;8.07;;;4.55;;
26151;SDS011;13907;53.154;8.202;2022-09-24T13:34:30;5.72;;;3.97;;
26151;SDS011;13907;53.154;8.202;2022-09-24T13:37:00;11.40;;;5.22;;
26151;SDS011;13907;53.154;8.202;2022-09-24T13:39:30;14.15;;;4.28;;
26151;SDS011;13907;53.154;8.202;2022-09-24T13:42:01;5.78;;;4.03;;
26151;SDS011;13907;53.154;8.202;2022-09-24T13:44:30;10.15;;;4.40;;
26151;SDS011;13907;53.154;8.202;2022-09-24T13:47:11;8.05;;;4.50;;
26151;SDS011;13907;53.154;8.202;2022-09-24T13:49:39;6.68;;;3.70;;
26151;SDS011;13907;53.154;8.202;2022-09-24T13:52:10;6.88;;;3.80;;
26151;SDS011;13907;53.154;8.202;2022-09-24T13:54:43;7.32;;;4.40;;
26151;SDS011;13907;53.154;8.202;2022-09-24T13:57:13;4.70;;;3.20;;
26151;SDS011;13907;53.154;8.202;2022-09-24T13:59:41;5.07;;;3.33;;
26151;SDS011;13907;53.154;8.202;2022-09-24T14:02:21;6.97;;;3.53;;
26151;SDS011;13907;53.154;8.202;2022-09-24T14:04:52;6.78;;;4.22;;
26151;SDS011;13907;53.154;8.202;2022-09-24T14:07:20;6.32;;;3.70;;
26151;SDS011;13907;53.154;8.202;2022-09-24T14:09:48;5.53;;;3.97;;
26151;SDS011;13907;53.154;8.202;2022-09-24T14:12:16;4.70;;;3.30;;
26151;SDS011;13907;53.154;8.202;2022-09-24T14:14:50;5.57;;;3.40;;
26151;SDS011;13907;53.154;8.202;2022-09-24T14:17:18;6.22;;;3.33;;
26151;SDS011;13907;53.154;8.202;2022-09-24T14:19:46;4.55;;;2.97;;
26151;SDS011;13907;53.154;8.202;2022-09-24T14:22:14;4.95;;;3.33;;
26151;SDS011;13907;53.154;8.202;2022-09-24T14:24:44;3.92;;;3.13;;
26151;SDS011;13907;53.154;8.202;2022-09-24T14:27:14;4.78;;;3.25;;
26151;SDS011;13907;53.154;8.202;2022-09-24T14:29:43;6.28;;;3.63;;
26151;SDS011;13907;53.154;8.202;2022-09-24T14:32:15;5.53;;;3.47;;
26151;SDS011;13907;53.154;8.202;2022-09-24T14:34:46;3.88;;;2.83;;
26151;SDS011;13907;53.154;8.202;2022-09-24T14:37:18;3.95;;;2.53;;
26151;SDS011;13907;53.154;8.202;2022-09-24T14:39:47;4.03;;;3.00;;
26151;SDS011;13907;53.154;8.202;2022-09-24T14:42:19;6.20;;;2.85;;
26151;SDS011;13907;53.154;8.202;2022-09-24T14:44:47;4.68;;;2.83;;
26151;SDS011;13907;53.154;8.202;2022-09-24T14:47:23;3.90;;;2.30;;
26151;SDS011;13907;53.154;8.202;2022-09-24T14:49:50;3.13;;;2.28;;
26151;SDS011;13907;53.154;8.202;2022-09-24T14:52:24;2.45;;;1.85;;
26151;SDS011;13907;53.154;8.202;2022-09-24T14:55:00;3.15;;;1.90;;
26151;SDS011;13907;53.154;8.202;2022-09-24T14:57:34;2.47;;;1.97;;
26151;SDS011;13907;53.154;8.202;2022-09-24T15:00:02;1.93;;;1.70;;
26151;SDS011;13907;53.154;8.202;2022-09-24T15:02:30;1.87;;;1.33;;
26151;SDS011;13907;53.154;8.202;2022-09-24T15:05:01;1.75;;;1.65;;
26151;SDS011;13907;53.154;8.202;2022-09-24T15:07:29;1.60;;;1.50;;
26151;SDS011;13907;53.154;8.202;2022-09-24T15:09:57;1.63;;;1.50;;
26151;SDS011;13907;53.154;8.202;2022-09-24T15:12:27;0.93;;;0.93;;